sim
Sign-in with your pilot id or email,
or register
Callsign
Passwort

Schedule Details

Flight Number: GEC8472 (2B)
Departure: Frankfurt Airport (EDDF) at 19:40
Arrival: Mumbai Chhatrapati Shivaji International Airport (VABB) at 03:45
Route: Lufthansa Cargo Cargo Schedule. Enter filed route here before submitting Pirep.

Weather Information
Getting current METAR information for EDDF 152350Z 18005KT 150V210 9999 -RA FEW026 BKN048 08/07 Q1010 NOSIG
Getting current METAR information for VABB 152330Z 00000KT 2100 HZ NSC 24/20 Q1011 NOSIG

Schedule Frequency

Route Map